Time;durP1;ratioP1;P1;durP2;ratioP2;P2;SDS_P1;SDS_P2;PMS_P1;PMS_P2;Temp;Humidity;BMP_temperature;BMP_pressure;BME280_temperature;BME280_humidity;BME280_pressure;Samples;Min_cycle;Max_cycle;Signal;HPM_P1;HPM_P2
2022/10/24 00:00:33;;;;;;;8.93;2.35;;;;;;;16.48;100.00;100298.91;5274747;28;20032;-77
2022/10/24 00:03:04;;;;;;;8.15;1.80;;;;;;;16.47;100.00;100299.91;5268588;28;20031;-76
2022/10/24 00:05:36;;;;;;;8.95;2.42;;;;;;;16.39;100.00;100295.50;5270195;28;20020;-77
2022/10/24 00:08:07;;;;;;;9.32;2.40;;;;;;;16.39;100.00;100292.88;5267792;28;20031;-76
2022/10/24 00:10:44;;;;;;;7.53;2.53;;;;;;;16.43;100.00;100290.69;5274223;28;20551;-76
2022/10/24 00:13:17;;;;;;;6.85;2.08;;;;;;;16.37;100.00;100286.16;5265936;28;20033;-77
2022/10/24 00:15:49;;;;;;;6.38;1.90;;;;;;;16.36;100.00;100290.59;5267536;28;20486;-76
2022/10/24 00:18:20;;;;;;;6.55;2.00;;;;;;;16.26;100.00;100280.28;5268263;28;20040;-76
2022/10/24 00:20:51;;;;;;;12.90;2.50;;;;;;;16.35;100.00;100291.59;5267849;28;20025;-76
2022/10/24 00:23:22;;;;;;;5.70;2.03;;;;;;;16.29;100.00;100287.06;5265441;28;20013;-77
2022/10/24 00:25:54;;;;;;;6.93;2.00;;;;;;;16.32;100.00;100294.59;5266476;28;20058;-77
2022/10/24 00:28:25;;;;;;;7.15;2.15;;;;;;;16.41;100.00;100290.88;5265382;28;20025;-76
2022/10/24 00:30:57;;;;;;;10.50;2.70;;;;;;;16.38;100.00;100295.72;5267956;28;20029;-76
2022/10/24 00:33:28;;;;;;;5.55;1.92;;;;;;;16.29;100.00;100290.50;5268874;28;20048;-76
2022/10/24 00:35:59;;;;;;;7.22;1.98;;;;;;;16.32;100.00;100280.56;5268748;28;20076;-76
2022/10/24 00:38:31;;;;;;;7.78;2.97;;;;;;;16.33;100.00;100284.84;5268325;28;20104;-76
2022/10/24 00:41:02;;;;;;;9.23;2.13;;;;;;;16.37;100.00;100279.03;5268697;28;20023;-77
2022/10/24 00:43:33;;;;;;;6.93;2.10;;;;;;;16.29;100.00;100274.66;5268045;28;20020;-77
2022/10/24 00:46:04;;;;;;;5.78;2.50;;;;;;;16.30;100.00;100278.94;5266070;28;20481;-76
2022/10/24 00:48:41;;;;;;;8.40;2.10;;;;;;;16.38;100.00;100269.28;5266252;28;20062;-76
2022/10/24 00:51:23;;;;;;;9.40;2.30;;;;;;;16.39;100.00;100268.25;5267883;28;20040;-76
2022/10/24 00:54:03;;;;;;;7.65;2.35;;;;;;;16.39;100.00;100273.56;5267659;28;20025;-76
2022/10/24 00:56:38;;;;;;;4.82;2.35;;;;;;;16.28;100.00;100258.94;5266631;28;20032;-76
2022/10/24 00:59:11;;;;;;;4.40;1.77;;;;;;;16.25;100.00;100269.88;5268171;28;20025;-76
2022/10/24 01:01:43;;;;;;;;;;;;;;;16.80;100.00;100268.63;5266285;28;20032;-77
2022/10/24 01:04:15;;;;;;;4.78;2.00;;;;;;;16.33;100.00;100266.34;5267166;28;19916;-76
2022/10/24 01:07:00;;;;;;;6.97;2.10;;;;;;;16.41;100.00;100268.91;5265673;28;20074;-78
2022/10/24 01:10:10;;;;;;;5.30;2.17;;;;;;;16.44;100.00;100268.53;5268432;28;20528;-76
2022/10/24 01:13:02;;;;;;;7.93;2.13;;;;;;;16.45;100.00;100264.91;5267588;28;20029;-76
2022/10/24 01:15:58;;;;;;;7.63;2.13;;;;;;;16.45;100.00;100267.53;5264104;28;20044;-76
2022/10/24 01:18:38;;;;;;;5.10;2.13;;;;;;;16.36;100.00;100269.44;5267513;28;20024;-76
2022/10/24 01:21:23;;;;;;;8.55;2.38;;;;;;;16.32;100.00;100267.34;5266149;28;20033;-76
2022/10/24 01:24:24;;;;;;;7.70;2.30;;;;;;;16.50;100.00;100262.53;5268192;28;20067;-76
2022/10/24 01:27:06;;;;;;;6.68;1.90;;;;;;;16.25;100.00;100256.66;5265795;28;20859;-77
2022/10/24 01:29:46;;;;;;;7.17;2.30;;;;;;;16.34;100.00;100258.25;5266779;28;20035;-76
2022/10/24 01:32:36;;;;;;;6.47;2.40;;;;;;;16.47;100.00;100261.06;5265655;28;20039;-78
2022/10/24 01:35:21;;;;;;;7.97;2.30;;;;;;;16.37;100.00;100262.34;5266778;28;20333;-76
2022/10/24 01:37:52;;;;;;;6.28;1.98;;;;;;;16.26;100.00;100261.78;5267733;28;20078;-76
2022/10/24 01:40:58;;;;;;;4.73;2.00;;;;;;;16.53;100.00;100256.88;5264521;28;20049;-76
2022/10/24 01:43:37;;;;;;;7.53;2.15;;;;;;;16.25;100.00;100246.09;5258990;28;20720;-76
2022/10/24 01:46:18;;;;;;;7.38;2.33;;;;;;;16.34;100.00;100252.94;5266376;28;20436;-76
2022/10/24 01:48:56;;;;;;;7.72;2.38;;;;;;;16.34;100.00;100246.84;5266205;28;20040;-76
2022/10/24 01:51:30;;;;;;;4.35;1.70;;;;;;;16.29;100.00;100237.66;5267055;28;20032;-76
2022/10/24 01:54:03;;;;;;;4.97;1.52;;;;;;;16.27;100.00;100246.75;5265741;28;20093;-76
2022/10/24 01:56:34;;;;;;;5.32;1.83;;;;;;;16.35;100.00;100235.25;5266976;28;20477;-79
2022/10/24 01:59:27;;;;;;;8.02;2.00;;;;;;;16.36;100.00;100239.53;5266220;28;20044;-76
2022/10/24 02:02:20;;;;;;;7.60;1.95;;;;;;;16.50;100.00;100233.44;5265322;28;20025;-76
2022/10/24 02:05:01;;;;;;;;;;;;;;;16.73;100.00;100239.44;5264402;28;20482;-78
2022/10/24 02:07:35;;;;;;;5.03;1.60;;;;;;;16.38;100.00;100240.19;5265984;28;20011;-76
2022/10/24 02:10:13;;;;;;;7.05;1.88;;;;;;;16.39;100.00;100241.81;5266127;28;20055;-76
2022/10/24 02:12:53;;;;;;;5.30;1.98;;;;;;;16.45;100.00;100233.19;5265379;28;20087;-76
2022/10/24 02:15:28;;;;;;;4.55;1.80;;;;;;;16.28;100.00;100235.16;5266117;28;20485;-76
2022/10/24 02:18:00;;;;;;;6.80;2.15;;;;;;;16.28;100.00;100232.53;5266751;28;20032;-76
2022/10/24 02:20:44;;;;;;;8.80;1.75;;;;;;;16.36;100.00;100232.44;5265687;28;20025;-76
2022/10/24 02:23:25;;;;;;;7.45;1.90;;;;;;;16.32;100.00;100227.69;5265684;28;20103;-76
2022/10/24 02:26:00;;;;;;;5.03;1.73;;;;;;;16.43;100.00;100238.63;5265840;28;20036;-76
2022/10/24 02:28:39;;;;;;;5.47;2.08;;;;;;;16.39;100.00;100231.25;5266006;28;20396;-77
2022/10/24 02:31:20;;;;;;;6.00;1.70;;;;;;;16.38;100.00;100238.38;5266715;28;20036;-76
2022/10/24 02:33:53;;;;;;;6.80;2.22;;;;;;;16.33;100.00;100235.47;5267053;28;20040;-76
2022/10/24 02:36:30;;;;;;;3.95;1.55;;;;;;;16.33;100.00;100235.47;5265083;28;20040;-76
2022/10/24 02:39:05;;;;;;;6.10;2.30;;;;;;;16.36;100.00;100239.53;5265757;28;20136;-77
2022/10/24 02:41:39;;;;;;;6.18;1.50;;;;;;;16.30;100.00;100234.00;5265777;28;20031;-77
2022/10/24 02:44:14;;;;;;;6.72;1.73;;;;;;;16.43;100.00;100251.84;5265504;28;20060;-77
2022/10/24 02:46:46;;;;;;;3.55;1.40;;;;;;;16.34;100.00;100231.00;5266443;28;20028;-77
2022/10/24 02:49:18;;;;;;;4.20;1.88;;;;;;;16.43;100.00;100232.53;5266577;28;20040;-78
2022/10/24 02:51:50;;;;;;;5.20;1.55;;;;;;;16.40;100.00;100244.31;5268068;28;20474;-78
2022/10/24 02:54:22;;;;;;;6.38;1.60;;;;;;;16.42;100.00;100241.47;5267923;28;20036;-77
2022/10/24 02:56:59;;;;;;;4.72;1.33;;;;;;;16.55;100.00;100238.97;5265434;28;20025;-77
2022/10/24 02:59:31;;;;;;;5.47;1.30;;;;;;;16.47;100.00;100249.66;5267396;28;20512;-77
2022/10/24 03:02:02;;;;;;;5.10;1.60;;;;;;;16.47;100.00;100231.16;5266650;28;20013;-77
2022/10/24 03:04:33;;;;;;;5.38;1.70;;;;;;;16.51;100.00;100229.78;5268673;28;20031;-77
2022/10/24 03:07:06;;;;;;;6.15;1.77;;;;;;;16.50;100.00;100241.38;5267039;28;20021;-77
2022/10/24 03:09:37;;;;;;;6.20;1.33;;;;;;;16.45;100.00;100244.56;5267932;28;20155;-77
2022/10/24 03:12:13;;;;;;;6.85;1.70;;;;;;;16.47;100.00;100247.84;5266852;28;20545;-76
2022/10/24 03:14:45;;;;;;;5.43;1.40;;;;;;;16.42;100.00;100239.63;5268240;28;20020;-77
2022/10/24 03:17:16;;;;;;;4.85;1.60;;;;;;;16.45;100.00;100238.47;5267276;28;20086;-77
2022/10/24 03:19:47;;;;;;;4.75;1.55;;;;;;;16.50;100.00;100247.47;5267595;28;20031;-77
2022/10/24 03:22:18;;;;;;;5.05;1.70;;;;;;;16.46;100.00;100243.56;5269729;28;20597;-77
2022/10/24 03:24:50;;;;;;;6.68;1.27;;;;;;;16.38;100.00;100224.34;5268382;28;20397;-77
2022/10/24 03:27:21;;;;;;;7.30;1.85;;;;;;;16.45;100.00;100238.47;5267266;28;20386;-77
2022/10/24 03:29:53;;;;;;;4.40;1.50;;;;;;;16.34;100.00;100231.81;5266040;28;20387;-77
2022/10/24 03:32:24;;;;;;;5.70;1.38;;;;;;;16.37;100.00;100242.03;5266580;28;20021;-77
2022/10/24 03:34:55;;;;;;;5.85;1.42;;;;;;;16.42;100.00;100241.47;5265205;28;20025;-75
2022/10/24 03:37:27;;;;;;;4.63;1.77;;;;;;;16.40;100.00;100240.81;5268754;28;20043;-77
2022/10/24 03:39:58;;;;;;;5.40;1.73;;;;;;;16.44;100.00;100228.88;5267561;28;20075;-77
2022/10/24 03:42:30;;;;;;;6.03;1.63;;;;;;;16.41;100.00;100223.97;5267590;28;20036;-77
2022/10/24 03:45:01;;;;;;;4.63;2.03;;;;;;;16.46;100.00;100221.59;5267011;28;20024;-77
2022/10/24 03:47:32;;;;;;;5.28;1.48;;;;;;;16.45;100.00;100218.13;5265969;28;20032;-77
2022/10/24 03:50:05;;;;;;;6.53;1.98;;;;;;;16.47;100.00;100217.94;5266289;28;20298;-77
2022/10/24 03:52:36;;;;;;;4.65;1.90;;;;;;;16.39;100.00;100226.78;5266431;28;20021;-78
2022/10/24 03:55:08;;;;;;;5.65;1.60;;;;;;;16.42;100.00;100205.28;5266879;28;20498;-77
2022/10/24 03:57:39;;;;;;;7.43;1.88;;;;;;;16.44;100.00;100226.22;5267881;28;20036;-77
2022/10/24 04:00:11;;;;;;;5.57;1.48;;;;;;;16.49;100.00;100218.59;5268479;28;20028;-77
2022/10/24 04:02:42;;;;;;;6.07;1.85;;;;;;;16.47;100.00;100220.56;5267422;28;20093;-76
2022/10/24 04:05:13;;;;;;;4.38;1.60;;;;;;;16.49;100.00;100222.03;5267446;28;20043;-76
2022/10/24 04:07:44;;;;;;;4.25;1.33;;;;;;;16.56;100.00;100235.34;5268971;28;20089;-78
2022/10/24 04:10:16;;;;;;;5.03;1.40;;;;;;;16.52;100.00;100237.53;5270208;28;20024;-77
2022/10/24 04:12:47;;;;;;;6.93;2.13;;;;;;;16.58;100.00;100230.69;5272022;28;20021;-77
2022/10/24 04:15:19;;;;;;;7.65;1.90;;;;;;;16.54;100.00;100221.47;5270833;28;20082;-77
2022/10/24 04:17:50;;;;;;;8.18;1.55;;;;;;;16.49;100.00;100223.88;5270502;28;20024;-78
2022/10/24 04:20:22;;;;;;;5.45;1.58;;;;;;;16.51;100.00;100216.56;5268826;28;20038;-77
2022/10/24 04:22:53;;;;;;;7.50;1.75;;;;;;;16.46;100.00;100227.69;5268136;28;20060;-78
2022/10/24 04:25:24;;;;;;;5.30;1.52;;;;;;;16.51;100.00;100225.31;5268925;28;20705;-78
2022/10/24 04:27:56;;;;;;;8.05;1.48;;;;;;;16.51;100.00;100221.84;5269879;28;20028;-78
2022/10/24 04:30:28;;;;;;;3.75;1.40;;;;;;;16.53;100.00;100219.84;5266796;28;20020;-77
2022/10/24 04:32:59;;;;;;;7.38;1.88;;;;;;;16.54;100.00;100222.31;5269083;28;20047;-78
2022/10/24 04:35:30;;;;;;;5.57;1.42;;;;;;;16.58;100.00;100220.09;5267639;28;20485;-77
2022/10/24 04:38:02;;;;;;;4.97;1.45;;;;;;;16.52;100.00;100219.03;5268471;28;20060;-78
2022/10/24 04:40:33;;;;;;;4.97;1.30;;;;;;;16.54;100.00;100221.47;5268938;28;20044;-77
2022/10/24 04:43:04;;;;;;;5.70;1.52;;;;;;;16.54;100.00;100219.66;5268477;28;20031;-78
2022/10/24 04:45:35;;;;;;;6.93;1.90;;;;;;;16.54;100.00;100221.47;5268782;28;20171;-77
2022/10/24 04:48:07;;;;;;;5.45;1.55;;;;;;;16.42;100.00;100196.53;5268066;28;20031;-77
2022/10/24 04:50:40;;;;;;;4.72;1.45;;;;;;;16.57;100.00;100228.25;5268442;28;20028;-78
2022/10/24 04:53:12;;;;;;;5.93;1.95;;;;;;;16.52;100.00;100215.56;5268505;28;20032;-78
2022/10/24 04:55:43;;;;;;;7.15;1.40;;;;;;;16.52;100.00;100216.41;5270069;28;20020;-78
2022/10/24 04:58:15;;;;;;;6.88;1.98;;;;;;;16.61;100.00;100216.28;5266639;28;20040;-78
2022/10/24 05:00:48;;;;;;;7.97;1.92;;;;;;;16.63;100.00;100204.53;5267577;28;20055;-77
2022/10/24 05:03:20;;;;;;;5.65;1.63;;;;;;;16.75;100.00;100218.94;5268059;28;20507;-77
2022/10/24 05:05:51;;;;;;;5.13;1.33;;;;;;;16.73;100.00;100205.06;5266096;28;20029;-77
2022/10/24 05:08:22;;;;;;;4.60;1.60;;;;;;;16.76;100.00;100214.47;5267564;28;20444;-78
2022/10/24 05:10:53;;;;;;;7.70;1.50;;;;;;;16.71;100.00;100225.56;5266253;28;20057;-78
2022/10/24 05:13:25;;;;;;;4.43;1.38;;;;;;;16.72;100.00;100234.31;5268717;28;20086;-78
2022/10/24 05:15:56;;;;;;;7.55;1.70;;;;;;;16.68;100.00;100233.88;5268741;28;20036;-77
2022/10/24 05:18:27;;;;;;;10.02;1.77;;;;;;;16.69;100.00;100232.03;5268657;28;20043;-78
2022/10/24 05:20:59;;;;;;;6.93;1.50;;;;;;;16.75;100.00;100229.53;5264452;28;20021;-77
2022/10/24 05:23:30;;;;;;;8.15;2.03;;;;;;;16.72;100.00;100239.63;5267196;28;20580;-78
2022/10/24 05:26:02;;;;;;;8.77;1.70;;;;;;;16.71;100.00;100233.50;5267015;28;20115;-78
2022/10/24 05:28:33;;;;;;;8.43;1.85;;;;;;;16.71;100.00;100244.09;5267004;28;20028;-78
2022/10/24 05:31:05;;;;;;;7.32;2.13;;;;;;;16.75;100.00;100247.22;5267623;28;20030;-77
2022/10/24 05:33:36;;;;;;;6.80;1.75;;;;;;;16.69;100.00;100240.78;5274674;28;20028;-77
2022/10/24 05:36:07;;;;;;;10.50;1.73;;;;;;;16.78;100.00;100247.66;5267800;28;20037;-76
2022/10/24 05:38:39;;;;;;;5.47;1.60;;;;;;;16.76;100.00;100244.38;5265924;28;20146;-79
2022/10/24 05:41:10;;;;;;;7.25;1.63;;;;;;;16.86;100.00;100251.19;5268779;28;20035;-77
2022/10/24 05:43:41;;;;;;;6.95;2.17;;;;;;;16.85;100.00;100250.38;5267038;28;20016;-76
2022/10/24 05:46:12;;;;;;;5.38;1.60;;;;;;;16.86;100.00;100252.03;5265968;28;20039;-78
2022/10/24 05:48:44;;;;;;;9.23;1.70;;;;;;;16.89;100.00;100253.47;5269172;28;20024;-78
2022/10/24 05:51:15;;;;;;;9.77;2.30;;;;;;;16.88;100.00;100250.00;5269453;28;20025;-77
2022/10/24 05:53:46;;;;;;;4.63;1.55;;;;;;;16.88;100.00;100250.00;5270496;28;20321;-78
2022/10/24 05:56:18;;;;;;;9.45;2.10;;;;;;;16.88;100.00;100255.31;5269659;28;20043;-78
2022/10/24 05:58:49;;;;;;;7.10;1.75;;;;;;;16.86;100.00;100246.75;5269580;28;20048;-78
2022/10/24 06:01:21;;;;;;;9.68;2.38;;;;;;;16.78;100.00;100233.59;5267525;28;20186;-77
2022/10/24 06:03:52;;;;;;;8.23;1.95;;;;;;;16.77;100.00;100251.31;5268262;28;20081;-78
2022/10/24 06:06:23;;;;;;;9.35;1.80;;;;;;;16.85;100.00;100260.16;5269634;28;20024;-78
2022/10/24 06:08:55;;;;;;;9.43;1.60;;;;;;;16.83;100.00;100260.34;5268998;28;20036;-77
2022/10/24 06:11:26;;;;;;;6.13;1.88;;;;;;;16.80;100.00;100246.66;5267699;28;20111;-77
2022/10/24 06:13:57;;;;;;;6.65;1.83;;;;;;;16.75;100.00;100255.16;5269351;28;20032;-77
2022/10/24 06:16:29;;;;;;;5.85;1.75;;;;;;;16.72;100.00;100260.78;5267595;28;20060;-78
2022/10/24 06:19:01;;;;;;;10.02;2.13;;;;;;;16.69;100.00;100256.66;5268080;28;20032;-77
2022/10/24 06:21:32;;;;;;;10.85;2.78;;;;;;;16.58;100.00;100262.41;5267932;28;20380;-78
2022/10/24 06:24:03;;;;;;;10.77;2.33;;;;;;;16.62;100.00;100270.81;5269822;28;20435;-78
2022/10/24 06:26:35;;;;;;;8.68;2.33;;;;;;;16.59;100.00;100273.81;5268813;28;20485;-77
2022/10/24 06:29:06;;;;;;;6.60;2.50;;;;;;;16.56;100.00;100272.38;5269239;28;20033;-78
2022/10/24 06:31:38;;;;;;;7.28;1.73;;;;;;;16.50;100.00;100267.81;5268312;28;20029;-78
2022/10/24 06:34:09;;;;;;;7.20;1.60;;;;;;;16.53;100.00;100276.19;5268402;28;20052;-77
2022/10/24 06:36:40;;;;;;;10.43;2.20;;;;;;;16.50;100.00;100279.19;5267829;28;20090;-76
2022/10/24 06:39:12;;;;;;;7.35;2.15;;;;;;;16.48;100.00;100283.06;5263585;28;20045;-77
2022/10/24 06:41:43;;;;;;;8.13;1.60;;;;;;;16.50;100.00;100283.69;5268375;28;20052;-78
2022/10/24 06:44:14;;;;;;;7.68;2.22;;;;;;;16.50;100.00;100291.59;5267499;28;20655;-78
2022/10/24 06:46:46;;;;;;;8.85;2.30;;;;;;;16.52;100.00;100302.84;5267300;28;20021;-78
2022/10/24 06:49:17;;;;;;;9.07;2.30;;;;;;;16.48;100.00;100296.28;5263940;28;20036;-78
2022/10/24 06:51:48;;;;;;;8.20;2.35;;;;;;;16.51;100.00;100311.75;5269299;28;21167;-78
2022/10/24 06:54:20;;;;;;;9.38;2.63;;;;;;;16.44;100.00;100310.84;5269959;28;20494;-78
2022/10/24 06:56:51;;;;;;;11.70;2.10;;;;;;;16.50;100.00;100313.56;5269737;28;20025;-78
2022/10/24 06:59:22;;;;;;;9.10;2.00;;;;;;;16.63;100.00;100328.84;5264950;28;20140;-77
2022/10/24 07:01:53;;;;;;;8.05;1.67;;;;;;;16.62;100.00;100321.88;5266569;28;20037;-78
2022/10/24 07:04:25;;;;;;;10.10;2.72;;;;;;;16.64;100.00;100322.53;5269199;28;20108;-78
2022/10/24 07:06:56;;;;;;;7.95;1.90;;;;;;;16.61;100.00;100322.06;5268786;28;20059;-78
2022/10/24 07:09:28;;;;;;;11.73;2.63;;;;;;;16.55;100.00;100318.31;5268657;28;20718;-78
2022/10/24 07:11:59;;;;;;;8.40;1.90;;;;;;;16.47;100.00;100319.22;5268508;28;20029;-78
2022/10/24 07:14:30;;;;;;;8.27;1.90;;;;;;;16.37;100.00;100318.69;5270570;28;20052;-79
2022/10/24 07:17:02;;;;;;;10.18;2.60;;;;;;;16.35;100.00;100325.97;5270221;28;20119;-78
2022/10/24 07:19:34;;;;;;;9.73;2.35;;;;;;;16.35;100.00;100333.06;5269933;28;20043;-78
2022/10/24 07:22:05;;;;;;;8.57;2.40;;;;;;;16.28;100.00;100336.44;5269878;28;20024;-77
2022/10/24 07:24:36;;;;;;;10.93;2.40;;;;;;;16.29;100.00;100335.44;5269576;28;20016;-78
2022/10/24 07:27:08;;;;;;;9.77;2.13;;;;;;;16.39;100.00;100351.03;5265648;28;20078;-78
2022/10/24 07:29:39;;;;;;;8.35;2.00;;;;;;;16.45;100.00;100355.63;5264968;28;20406;-78
2022/10/24 07:32:10;;;;;;;9.38;2.15;;;;;;;16.50;100.00;100369.09;5266920;28;20037;-77
2022/10/24 07:34:41;;;;;;;11.50;2.50;;;;;;;16.55;100.00;100360.63;5272000;28;20040;-78
2022/10/24 07:37:17;;;;;;;11.30;2.70;;;;;;;16.60;100.00;100366.22;5272583;28;20017;-78
2022/10/24 07:39:48;;;;;;;11.90;2.45;;;;;;;16.54;100.00;100364.28;5270920;28;20047;-78
2022/10/24 07:42:19;;;;;;;8.27;2.72;;;;;;;16.61;100.00;100370.50;5272090;28;20025;-79
2022/10/24 07:44:51;;;;;;;9.65;2.00;;;;;;;16.72;100.00;100375.34;5272441;28;20036;-78
2022/10/24 07:47:22;;;;;;;7.93;2.20;;;;;;;16.74;100.00;100375.19;5271761;28;20401;-78
2022/10/24 07:49:53;;;;;;;10.20;2.33;;;;;;;16.69;100.00;100378.34;5272365;28;20535;-78
2022/10/24 07:52:24;;;;;;;8.63;2.10;;;;;;;16.75;100.00;100398.00;5269649;28;20603;-78
2022/10/24 07:54:56;;;;;;;10.38;2.22;;;;;;;16.81;100.00;100407.03;5272279;28;20279;-78
2022/10/24 07:57:28;;;;;;;6.97;1.73;;;;;;;16.84;100.00;100410.13;5274097;28;20698;-79
2022/10/24 07:59:59;;;;;;;7.38;2.28;;;;;;;16.83;100.00;100400.56;5272152;28;20171;-79
2022/10/24 08:02:31;;;;;;;9.70;2.05;;;;;;;16.87;100.00;100403.66;5274499;28;20043;-78
2022/10/24 08:05:03;;;;;;;10.85;2.75;;;;;;;16.81;100.00;100407.84;5270374;28;20380;-79
2022/10/24 08:07:35;;;;;;;9.65;2.33;;;;;;;16.88;100.00;100410.59;5274063;28;20092;-78
2022/10/24 08:10:11;;;;;;;8.55;1.90;;;;;;;16.93;100.00;100413.50;5272356;28;20565;-77
2022/10/24 08:12:42;;;;;;;8.07;2.10;;;;;;;16.92;100.00;100427.75;5270096;28;20029;-78
2022/10/24 08:15:13;;;;;;;9.02;2.03;;;;;;;16.96;100.00;100429.03;5273607;28;20036;-77
2022/10/24 08:17:44;;;;;;;9.82;2.10;;;;;;;16.96;100.00;100429.84;5273430;28;20397;-78
2022/10/24 08:20:16;;;;;;;7.38;2.05;;;;;;;17.10;100.00;100428.22;5272272;28;20028;-78
2022/10/24 08:22:47;;;;;;;8.20;2.03;;;;;;;17.24;100.00;100443.28;5272888;28;20021;-79
2022/10/24 08:25:18;;;;;;;7.57;2.75;;;;;;;17.22;100.00;100442.63;5273890;28;20031;-79
2022/10/24 08:27:50;;;;;;;7.35;2.25;;;;;;;17.27;100.00;100439.41;5271605;28;20074;-78
2022/10/24 08:30:22;;;;;;;10.60;2.17;;;;;;;17.21;100.00;100437.53;5271209;28;20031;-78
2022/10/24 08:32:53;;;;;;;9.63;1.83;;;;;;;17.33;100.00;100443.16;5273863;28;20088;-78
2022/10/24 08:35:25;;;;;;;8.20;1.73;;;;;;;17.22;100.00;100439.16;5272524;28;20021;-77
2022/10/24 08:37:57;;;;;;;6.90;1.98;;;;;;;17.22;100.00;100433.88;5269952;28;20397;-78
2022/10/24 08:40:28;;;;;;;9.70;2.38;;;;;;;17.10;100.00;100443.28;5286314;22;20143;-73
2022/10/24 08:42:59;;;;;;;8.73;2.42;;;;;;;17.10;100.00;100454.69;5264114;28;20025;-73
2022/10/24 08:46:01;;;;;;;9.35;2.20;;;;;;;17.17;100.00;100460.06;5266398;28;20649;-73
2022/10/24 08:48:56;;;;;;;9.10;1.92;;;;;;;17.19;100.00;100469.44;5260972;28;20082;-74
2022/10/24 08:51:37;;;;;;;11.20;2.20;;;;;;;17.08;100.00;100445.25;5246626;28;20134;-73
2022/10/24 08:54:16;;;;;;;10.80;2.33;;;;;;;17.10;100.00;100451.22;5247694;28;20024;-73
2022/10/24 08:56:48;;;;;;;6.85;2.20;;;;;;;17.05;100.00;100454.41;5245513;28;20025;-73
2022/10/24 08:59:19;;;;;;;7.45;1.50;;;;;;;17.09;100.00;100458.34;5245879;28;20106;-73
2022/10/24 09:02:00;;;;;;;11.45;2.60;;;;;;;17.12;100.00;100449.19;5246413;28;20057;-73
2022/10/24 09:04:42;;;;;;;7.75;2.00;;;;;;;17.27;100.00;100476.47;5244387;28;20047;-73
2022/10/24 09:07:18;;;;;;;7.87;2.00;;;;;;;17.31;100.00;100461.06;5247006;28;20424;-73
2022/10/24 09:09:59;;;;;;;6.85;2.25;;;;;;;17.35;100.00;100457.03;5246220;28;20032;-73
2022/10/24 09:12:33;;;;;;;7.85;1.70;;;;;;;17.27;100.00;100450.00;5244861;28;20461;-74
2022/10/24 09:15:14;;;;;;;7.22;2.03;;;;;;;17.42;100.00;100466.72;5245141;28;20037;-73
2022/10/24 09:17:46;;;;;;;7.22;1.80;;;;;;;17.34;100.00;100469.47;5247493;28;20035;-73
2022/10/24 09:20:28;;;;;;;9.98;2.22;;;;;;;17.55;100.00;100474.03;5242712;28;20398;-73
2022/10/24 09:23:03;;;;;;;9.37;1.83;;;;;;;17.44;100.00;100483.25;5245464;28;20052;-73
2022/10/24 09:25:40;;;;;;;12.65;1.75;;;;;;;17.50;100.00;100476.38;5240922;28;20032;-73
2022/10/24 09:28:11;;;;;;;9.10;2.25;;;;;;;17.62;100.00;100485.53;5247388;28;20020;-73
2022/10/24 09:30:43;;;;;;;11.07;2.45;;;;;;;17.67;100.00;100482.31;5246547;28;20393;-73
2022/10/24 09:33:28;;;;;;;7.22;1.85;;;;;;;17.82;100.00;100482.31;5242619;28;20472;-73
2022/10/24 09:36:03;;;;;;;9.60;3.08;;;;;;;17.87;100.00;100488.69;5246832;28;20099;-73
2022/10/24 09:38:37;;;;;;;7.50;2.15;;;;;;;17.84;100.00;100504.13;5245387;28;20025;-73
2022/10/24 09:41:21;;;;;;;8.18;2.40;;;;;;;17.94;100.00;100497.53;5244121;28;20041;-73
2022/10/24 09:43:57;;;;;;;9.25;2.33;;;;;;;17.97;100.00;100505.13;5244821;28;20040;-73
2022/10/24 09:46:43;;;;;;;7.20;1.85;;;;;;;18.10;100.00;100503.63;5245669;28;20033;-73
2022/10/24 09:49:21;;;;;;;10.57;2.50;;;;;;;18.12;100.00;100515.69;5245799;28;20090;-73
2022/10/24 09:52:18;;;;;;;7.82;2.30;;;;;;;18.41;100.00;100522.72;5244046;28;20147;-73
2022/10/24 09:55:15;;;;;;;9.35;2.25;;;;;;;18.52;100.00;100529.34;5245493;28;20032;-73
2022/10/24 09:57:51;;;;;;;10.07;2.78;;;;;;;18.39;100.00;100510.66;5242530;28;20497;-73
2022/10/24 10:00:29;;;;;;;13.30;3.00;;;;;;;18.39;100.00;100518.63;5234389;28;20124;-73
2022/10/24 10:03:20;;;;;;;9.32;2.17;;;;;;;18.59;100.00;100514.31;5244974;28;20021;-73
2022/10/24 10:05:54;;;;;;;10.75;2.83;;;;;;;18.48;100.00;100523.59;5241754;28;20485;-73
2022/10/24 10:08:31;;;;;;;10.00;2.28;;;;;;;18.43;100.00;100509.28;5245344;28;20477;-73
2022/10/24 10:11:06;;;;;;;9.98;2.40;;;;;;;18.34;100.00;100536.94;5244694;28;20036;-73
2022/10/24 10:13:52;;;;;;;13.35;2.88;;;;;;;18.40;100.00;100536.16;5244366;28;20027;-73
2022/10/24 10:16:25;;;;;;;10.75;2.35;;;;;;;18.09;100.00;100533.81;5244615;28;20049;-73
2022/10/24 10:19:11;;;;;;;9.50;2.75;;;;;;;18.34;100.00;100550.19;5245209;28;20623;-73
2022/10/24 10:21:59;;;;;;;7.35;2.25;;;;;;;18.51;100.00;100556.06;5244550;28;20033;-73
2022/10/24 10:24:44;;;;;;;10.13;2.70;;;;;;;18.56;100.00;100546.53;5244895;28;20032;-73
2022/10/24 10:27:37;;;;;;;12.30;2.38;;;;;;;18.69;100.00;100545.84;5245549;28;20034;-73
2022/10/24 10:30:15;;;;;;;;;;;;;;;19.00;100.00;100561.44;5242678;28;20021;-74
2022/10/24 10:33:08;;;;;;;9.20;1.98;;;;;;;18.63;100.00;100565.16;5242502;28;19916;-74
2022/10/24 10:36:13;;;;;;;7.75;2.25;;;;;;;18.81;100.00;100559.44;5245283;28;20726;-73
2022/10/24 10:38:56;;;;;;;7.60;1.90;;;;;;;18.53;100.00;100585.91;5242445;28;20036;-74
2022/10/24 10:41:52;;;;;;;9.93;2.88;;;;;;;18.51;100.00;100579.94;5244537;28;20036;-74
2022/10/24 10:44:42;;;;;;;10.57;2.22;;;;;;;18.43;100.00;100587.00;5244301;28;20021;-74
2022/10/24 10:47:50;;;;;;;10.05;2.42;;;;;;;18.34;100.00;100595.28;5258076;28;20057;-74
2022/10/24 10:50:57;;;;;;;10.18;2.10;;;;;;;18.09;100.00;100603.53;5243106;28;20485;-74
2022/10/24 10:53:49;;;;;;;7.28;1.83;;;;;;;17.62;100.00;100595.97;5223248;28;20494;-74
2022/10/24 10:56:59;;;;;;;8.38;2.22;;;;;;;17.53;100.00;100603.16;5244554;28;20553;-74
2022/10/24 10:59:42;;;;;;;6.85;1.98;;;;;;;17.04;100.00;100606.25;5244403;28;20502;-74
2022/10/24 11:02:20;;;;;;;8.20;1.63;;;;;;;16.98;100.00;100604.34;5242974;28;20366;-73
2022/10/24 11:05:29;;;;;;;7.05;1.85;;;;;;;17.08;100.00;100610.19;5244362;28;20120;-74
2022/10/24 11:08:28;;;;;;;7.40;2.35;;;;;;;16.96;100.00;100601.03;5242566;28;20072;-74
2022/10/24 11:11:08;;;;;;;8.88;2.05;;;;;;;17.08;100.00;100606.72;5249122;28;20371;-73
2022/10/24 11:13:45;;;;;;;7.82;2.30;;;;;;;17.24;100.00;100609.25;5250358;28;20505;-76
2022/10/24 11:16:27;;;;;;;7.38;1.98;;;;;;;17.45;100.00;100601.41;5246981;28;20033;-76
2022/10/24 11:19:03;;;;;;;8.77;1.80;;;;;;;17.64;100.00;100605.34;5245980;28;20144;-74
2022/10/24 11:21:36;;;;;;;9.10;2.80;;;;;;;17.75;100.00;100609.41;5244743;28;20020;-75
2022/10/24 11:24:14;;;;;;;5.97;1.65;;;;;;;18.00;100.00;100604.66;5236637;28;20030;-74
2022/10/24 11:26:49;;;;;;;8.50;2.08;;;;;;;18.02;100.00;100605.28;5245224;28;20025;-73
2022/10/24 11:29:43;;;;;;;9.65;2.25;;;;;;;18.31;100.00;100601.78;5248409;28;20382;-77
2022/10/24 11:32:39;;;;;;;10.45;2.58;;;;;;;18.18;100.00;100613.06;5248090;28;20474;-74
2022/10/24 11:35:13;;;;;;;8.65;2.08;;;;;;;18.23;100.00;100607.19;5244620;28;20449;-74
2022/10/24 11:37:49;;;;;;;9.43;2.20;;;;;;;18.26;100.00;100606.81;5236423;28;20037;-73
2022/10/24 11:40:23;;;;;;;10.07;2.50;;;;;;;18.22;100.00;100614.31;5243695;28;20107;-74
2022/10/24 11:43:23;;;;;;;10.27;2.28;;;;;;;18.43;100.00;100610.06;5241496;28;20041;-75
2022/10/24 11:46:00;;;;;;;7.00;2.40;;;;;;;18.44;100.00;100615.16;5248381;28;20064;-74
2022/10/24 11:48:36;;;;;;;7.78;2.40;;;;;;;18.38;100.00;100607.16;5248112;28;20028;-76
2022/10/24 11:51:16;;;;;;;8.98;2.60;;;;;;;18.49;100.00;100619.94;5245666;28;20034;-73
2022/10/24 11:53:58;;;;;;;8.05;2.22;;;;;;;18.65;100.00;100609.09;5248733;28;20039;-74
2022/10/24 11:56:50;;;;;;;7.68;1.67;;;;;;;18.85;100.00;100603.16;5234719;28;20119;-73